Airfield :
LOGIN :

Register | Disclaimer

   EN    FR    IT 

 










Legend :    VFR   Marginal VFR   IFR   Intensive IFR   Very Intensive IFR
Visi :
Ceiling :
>= 8 km
>= 3000ft
5 to 8 km
1000 to 3000 ft
1500m to 5 km
500 to 1000 ft
800 to 1500m
200 to 500 ft
< 800m
< 200 ft
Symbols :   Thunderstorms  Fog  Heavy snow  Heavy precipitations  Wind > 20 kt
SIGMETs :     Misc.  Thunderstorms  Icing  Turbulence  Mountain Waves  Volcanic Ashes






- Airport Elevation : 308 ft
- IATA code : POZ


EPPO - Poznan-Lawica

CURRENT METAR :
  • 191600Z 28010KT 9999 -SHRA BKN008 BKN030CB 04/03 Q1011

EXPIRED METARs :
  • 191530Z 27008KT 9999 -SHRA BKN011 BKN032CB 04/03 Q1011
  • 191500Z 28011KT 9999 -SHRA BKN011 BKN032CB 04/03 Q1011
  • 191430Z 28010KT 9999 -SHRA BKN009 BKN012CB 05/03 Q1010
  • 191400Z 25010KT 9999 -SHRA BKN009 BKN012CB 05/04 Q1010
  • 191330Z 25008KT 9999 -SHRA BKN012CB 05/04 Q1010

TAF TAF EPPO
Valid from the 19 at 12:00 until the 20 at 12:00 UTC


191130Z 1912/2012 21013KT 9999 BKN025
BECMG 1912/1915 27013KT
TEMPO 1912/1915 23015G26KT SHRA BKN008 BKN015CB
TEMPO 1915/1922 27016G27KT 4000 SHRA BKN008 BKN013CB
PROB40
TEMPO 1915/1918 27020G37KT 2500 SHRA SHGS BKN009CB
TEMPO 1922/2007 3000 SHRASN BKN006 BKN013CB
BECMG 2010/2012 21010KT



MET'MAP, your aeronautical weather chart ! - Copyright ORBIFLY December 2007 - Disclaimer

ORBIFLY MET'MAP TEAM :

Programming & Development : Alexandra Zaïnal
Concept & original design : Baudouin d'Aumeries
Assistance for programming : Marc-Olivier Méhu
Technical & hardware support : Manuel Goepfert

Contact : metmap@orbifly.com




SOURCES & CREDITS :

   NOAA